Latest Weather Observations for Bankstown

IDN60801

Issued at 8:32 am EST Tuesday 21 May 2019 (issued every 10 minutes, with the page automatically refreshed every 10 minutes)

About weather observations | Map of weather stations | Latest weather observations for NSW | Other Formats
Station Details ID: 066137 Name: BANKSTOWN AIRPORT AWS Lat: -33.92 Lon: 150.99 Height: 6.5 m
Data from the previous 72 hours. | See also: Recent months at Bankstown
Date/Time
EST
Temp
°C
App
Temp
°C
Dew
Point
°C
Rel
Hum
%
Delta-T
°C
Wind Press
QNH
hPa
Press
MSL
hPa
Rain since
9am
mm
Dir  Spd
km/h
Gust
km/h
Spd
kts
Gust
kts
21/08:30am 13.4 12.4 11.1 86 1.2 WNW 7 9 4 5 1026.0 1026.0 0.0
21/08:00am 11.7 12.1 11.1 96 0.3 CALM 0 0 0 0 1025.8 1025.8 0.0
21/07:30am 9.4 9.1 8.8 96 0.3 CALM 0 0 0 0 1025.5 1025.5 0.0
21/07:12am 9.4 9.1 8.8 96 0.3 CALM 0 0 0 0 1025.2 1025.2 0.0
21/07:00am 9.3 9.0 8.7 96 0.3 CALM 0 0 0 0 1025.2 1025.2 0.0
21/06:47am 9.0 8.6 8.4 96 0.3 CALM 0 0 0 0 1025.1 1025.1 0.0
21/06:45am 8.8 8.3 8.0 95 0.4 CALM 0 0 0 0 1025.1 1025.1 0.0
21/06:30am 8.0 7.0 7.2 95 0.4 SSW 2 7 1 4 1025.0 1025.0 0.0
21/06:26am 7.9 6.8 7.1 95 0.4 ESE 2 7 1 4 1024.9 1024.9 0.0
21/06:10am 9.5 9.3 8.9 96 0.3 CALM 0 9 0 5 1024.7 1024.7 0.0
21/06:00am 8.9 8.1 8.1 95 0.4 N 2 6 1 3 1024.6 1024.6 0.0
21/05:46am 9.0 7.5 8.4 96 0.3 N 6 7 3 4 1024.6 1024.6 0.0
21/05:30am 9.8 8.3 9.2 96 0.3 N 7 9 4 5 1024.4 1024.4 0.0
21/05:00am 9.4 9.1 8.8 96 0.3 CALM 0 0 0 0 1024.3 1024.3 0.0
21/04:46am 10.0 9.9 9.4 96 0.3 CALM 0 0 0 0 1024.3 1024.3 0.0
21/04:30am 9.4 9.1 8.8 96 0.3 CALM 0 0 0 0 1024.2 1024.2 0.0
21/04:07am 9.0 8.6 8.2 95 0.4 CALM 0 0 0 0 1024.2 1024.2 0.0
21/04:00am 9.2 8.8 8.4 95 0.4 CALM 0 0 0 0 1024.1 1024.1 0.0
21/03:51am 9.1 8.8 8.5 96 0.3 CALM 0 0 0 0 1024.1 1024.1 0.0
21/03:30am 9.3 9.0 8.5 95 0.4 CALM 0 0 0 0 1024.2 1024.2 0.0
21/03:10am 9.2 8.8 8.4 95 0.4 CALM 0 0 0 0 1024.2 1024.2 0.0
21/03:08am 9.0 8.6 8.2 95 0.4 CALM 0 0 0 0 1024.2 1024.2 0.0
21/03:00am 9.6 9.3 8.8 95 0.4 CALM 0 0 0 0 1024.2 1024.2 0.0
21/02:30am 10.1 10.0 9.3 95 0.4 CALM 0 0 0 0 1024.3 1024.3 0.0
21/02:19am 9.5 9.2 8.6 94 0.4 CALM 0 0 0 0 1024.4 1024.4 0.0
21/02:00am 9.6 9.3 8.7 94 0.4 CALM 0 0 0 0 1024.3 1024.3 0.0
21/01:56am 9.9 9.7 9.1 95 0.4 CALM 0 0 0 0 1024.3 1024.3 0.0
21/01:31am 10.7 10.7 9.9 95 0.4 CALM 0 0 0 0 1024.5 1024.5 0.0
21/01:30am 10.7 10.7 9.9 95 0.4 CALM 0 0 0 0 1024.5 1024.5 0.0
21/01:07am 9.7 9.4 8.8 94 0.4 CALM 0 2 0 1 1024.4 1024.4 0.0
21/01:00am 10.3 10.2 9.4 94 0.4 CALM 0 0 0 0 1024.3 1024.3 0.0
21/12:38am 11.1 11.2 10.2 94 0.5 CALM 0 0 0 0 1024.3 1024.3 0.0
21/12:30am 11.0 11.1 10.1 94 0.5 CALM 0 0 0 0 1024.4 1024.4 0.0
21/12:17am 11.1 11.2 10.2 94 0.5 CALM 0 0 0 0 1024.7 1024.7 0.0
21/12:00am 10.9 11.0 10.0 94 0.5 CALM 0 0 0 0 1024.8 1024.8 0.0
 
Date/Time
EST
Temp
°C
App
Temp
°C
Dew
Point
°C
Rel
Hum
%
Delta-T
°C
Wind Press
QNH
hPa
Press
MSL
hPa
Rain since
9am
mm
Dir  Spd
km/h
Gust
km/h
Spd
kts
Gust
kts
20/11:30pm 10.3 9.0 9.1 92 0.6 ENE 6 6 3 3 1024.8 1024.8 0.0
20/11:20pm 11.3 11.0 10.2 93 0.6 ENE 2 7 1 4 1024.8 1024.8 0.0
20/11:09pm 12.7 13.3 11.8 94 0.5 CALM 0 0 0 0 1024.7 1024.7 0.0
20/11:00pm 12.1 12.5 11.2 94 0.5 CALM 0 0 0 0 1024.8 1024.8 0.0
20/10:53pm 11.6 11.8 10.5 93 0.6 CALM 0 0 0 0 1024.9 1024.9 0.0
20/10:43pm 12.6 13.1 11.7 94 0.5 CALM 0 0 0 0 1025.0 1025.0 0.0
20/10:36pm 13.0 13.7 12.2 95 0.4 CALM 0 0 0 0 1025.0 1025.0 0.0
20/10:30pm 12.7 13.3 11.9 95 0.4 CALM 0 0 0 0 1025.0 1025.0 0.0
20/10:12pm 11.8 12.1 10.9 94 0.5 CALM 0 0 0 0 1025.1 1025.1 0.0
20/10:05pm 12.3 12.7 11.2 93 0.6 CALM 0 0 0 0 1025.1 1025.1 0.0
20/10:00pm 12.4 12.8 11.1 92 0.7 CALM 0 0 0 0 1025.1 1025.1 0.0
20/09:30pm 12.0 12.1 10.2 89 0.9 CALM 0 0 0 0 1025.1 1025.1 0.0
20/09:00pm 13.5 14.1 11.9 90 0.9 CALM 0 0 0 0 1024.9 1024.9 0.0
20/08:30pm 13.8 14.4 12.0 89 1.0 CALM 0 0 0 0 1024.7 1024.7 0.0
20/08:00pm 13.6 13.9 10.8 83 1.5 CALM 0 0 0 0 1024.4 1024.4 0.0
20/07:30pm 14.1 14.4 10.9 81 1.7 CALM 0 0 0 0 1024.3 1024.3 0.0
20/07:00pm 16.1 16.8 12.3 78 2.1 CALM 0 0 0 0 1024.3 1024.3 0.0
20/06:30pm 16.7 17.3 11.8 73 2.7 CALM 0 0 0 0 1024.1 1024.1 0.0
20/06:00pm 18.6 18.1 12.8 69 3.2 SE 7 9 4 5 1023.8 1023.8 0.0
20/05:30pm 18.9 19.7 12.6 67 3.5 CALM 0 0 0 0 1023.6 1023.6 0.0
20/05:00pm 20.1 19.4 13.1 64 4.0 NE 9 11 5 6 1023.4 1023.4 0.0
20/04:30pm 20.6 19.9 13.1 62 4.3 NE 9 13 5 7 1023.4 1023.4 0.0
20/04:00pm 21.3 20.3 12.4 57 5.0 ENE 9 13 5 7 1023.4 1023.4 0.0
20/03:30pm 22.2 21.0 9.7 45 6.8 NNE 6 11 3 6 1023.4 1023.4 0.0
20/03:00pm 22.4 22.7 10.9 48 6.3 CALM 0 0 0 0 1023.5 1023.5 0.0
20/02:30pm 22.6 22.8 10.7 47 6.6 CALM 0 0 0 0 1023.6 1023.6 0.0
20/02:00pm 22.7 22.3 11.1 48 6.4 ESE 4 7 2 4 1023.9 1023.9 0.0
20/01:30pm 22.6 22.1 12.0 51 6.0 WSW 6 9 3 5 1024.2 1024.2 0.0
20/01:00pm 21.8 21.3 12.1 54 5.4 SSE 6 11 3 6 1024.7 1024.7 0.0
20/12:30pm 20.6 20.0 11.8 57 4.9 S 6 9 3 5 1025.3 1025.3 0.0
20/12:00pm 19.8 20.1 12.1 61 4.3 SW 2 7 1 4 1025.8 1025.8 0.0
20/11:30am 19.5 19.2 11.5 60 4.4 NW 4 9 2 5 1026.4 1026.4 0.0
20/11:00am 18.7 18.4 12.7 68 3.3 N 6 9 3 5 1027.1 1027.1 0.0
20/10:30am 17.5 17.9 12.4 72 2.8 NNW 2 7 1 4 1027.6 1027.6 0.0
20/10:00am 16.0 15.0 12.4 79 2.0 NW 9 11 5 6 1028.1 1028.1 0.0
20/09:30am 15.9 15.1 13.0 83 1.6 NW 9 11 5 6 1028.2 1028.2 0.0
20/09:00am 14.4 13.5 12.6 89 1.0 NW 9 11 5 6 1028.3 1028.3 0.0
20/08:30am 13.5 14.3 12.7 95 0.4 CALM 0 0 0 0 1028.2 1028.2 0.0
20/08:00am 11.9 12.3 11.3 96 0.3 CALM 0 0 0 0 1028.0 1028.0 0.0
20/07:39am 11.3 11.5 10.7 96 0.3 CALM 0 0 0 0 1027.9 1027.9 0.0
20/07:30am 11.0 11.2 10.4 96 0.3 CALM 0 0 0 0 1027.9 1027.9 0.0
20/07:00am 10.0 9.8 9.2 95 0.4 CALM 0 0 0 0 1027.8 1027.8 0.0
20/06:45am 9.4 9.1 8.6 95 0.4 CALM 0 0 0 0 1027.8 1027.8 0.0
20/06:30am 10.3 10.3 9.7 96 0.3 CALM 0 0 0 0 1027.7 1027.7 0.0
20/06:14am 11.2 10.3 10.6 96 0.3 NNE 6 9 3 5 1027.6 1027.6 0.0
20/06:00am 10.8 9.8 10.2 96 0.3 NE 6 7 3 4 1027.6 1027.6 0.0
20/05:30am 10.4 9.3 9.8 96 0.3 NE 6 7 3 4 1027.5 1027.5 0.0
20/05:19am 9.7 8.3 8.9 95 0.4 NE 6 7 3 4 1027.4 1027.4 0.0
20/05:00am 10.8 10.9 10.2 96 0.3 CALM 0 2 0 1 1027.3 1027.3 0.0
20/04:54am 10.8 10.9 10.2 96 0.3 CALM 0 2 0 1 1027.3 1027.3 0.0
20/04:30am 10.3 10.2 9.4 94 0.4 CALM 0 0 0 0 1027.2 1027.2 0.0
20/04:17am 10.2 10.1 9.3 94 0.4 CALM 0 0 0 0 1027.2 1027.2 0.0
20/04:00am 10.7 9.9 9.8 94 0.5 NE 4 7 2 4 1027.4 1027.4 0.0
20/03:50am 10.9 11.0 10.1 95 0.4 CALM 0 0 0 0 1027.5 1027.5 0.0
20/03:30am 10.2 10.0 9.1 93 0.5 CALM 0 2 0 1 1027.6 1027.6 0.0
20/03:27am 10.6 10.5 9.5 93 0.6 CALM 0 2 0 1 1027.6 1027.6 0.0
20/03:00am 11.2 10.5 10.1 93 0.6 NE 4 7 2 4 1027.7 1027.7 0.0
20/02:43am 11.8 12.1 10.9 94 0.5 CALM 0 0 0 0 1027.9 1027.9 0.0
20/02:30am 11.7 12.0 10.8 94 0.5 CALM 0 0 0 0 1027.8 1027.8 0.0
20/02:20am 11.6 11.8 10.5 93 0.6 CALM 0 0 0 0 1027.8 1027.8 0.0
20/02:00am 11.7 11.5 10.3 91 0.7 NE 2 6 1 3 1027.9 1027.9 0.0
20/01:30am 12.2 12.5 10.9 92 0.7 CALM 0 0 0 0 1028.0 1028.0 0.0
20/01:00am 12.2 12.4 10.6 90 0.8 CALM 0 0 0 0 1028.1 1028.1 0.0
20/12:30am 12.9 13.5 11.8 93 0.6 CALM 0 0 0 0 1028.1 1028.1 0.0
20/12:00am 12.4 12.8 11.3 93 0.6 CALM 0 0 0 0 1028.4 1028.4 0.0
 
Date/Time
EST
Temp
°C
App
Temp
°C
Dew
Point
°C
Rel
Hum
%
Delta-T
°C
Wind Press
QNH
hPa
Press
MSL
hPa
Rain since
9am
mm
Dir  Spd
km/h
Gust
km/h
Spd
kts
Gust
kts
19/11:30pm 12.3 12.5 10.7 90 0.8 CALM 0 0 0 0 1028.5 1028.5 0.0
19/11:00pm 12.9 13.2 10.8 87 1.1 CALM 0 0 0 0 1028.8 1028.8 0.0
19/10:30pm 13.4 13.9 11.5 88 1.0 CALM 0 0 0 0 1029.1 1029.1 0.0
19/10:00pm 13.3 13.7 11.4 88 1.0 CALM 0 0 0 0 1029.2 1029.2 0.0
19/09:30pm 14.3 14.9 12.0 86 1.2 CALM 0 0 0 0 1029.2 1029.2 0.0
19/09:00pm 14.4 15.2 12.4 88 1.1 CALM 0 0 0 0 1029.1 1029.1 0.0
19/08:30pm 13.8 13.3 12.2 90 0.9 NE 6 7 3 4 1029.1 1029.1 0.0
19/08:00pm 15.0 15.7 12.1 83 1.6 CALM 0 0 0 0 1028.8 1028.8 0.0
19/07:30pm 14.6 15.2 11.9 84 1.5 CALM 0 0 0 0 1028.8 1028.8 0.0
19/07:00pm 15.8 16.4 12.0 78 2.1 CALM 0 0 0 0 1028.7 1028.7 0.0
19/06:30pm 16.5 16.9 11.4 72 2.8 CALM 0 0 0 0 1028.5 1028.5 0.0
19/06:00pm 18.5 18.2 12.7 69 3.2 NE 6 7 3 4 1028.3 1028.3 0.0
19/05:30pm 19.0 18.5 12.5 66 3.6 NE 7 11 4 6 1028.2 1028.2 0.0
19/05:00pm 19.9 18.9 12.2 61 4.3 ENE 9 15 5 8 1028.2 1028.2 0.0
19/04:30pm 20.6 18.5 11.0 54 5.3 E 13 19 7 10 1028.0 1028.0 0.0
19/04:00pm 20.9 18.7 10.7 52 5.5 E 13 20 7 11 1028.1 1028.1 0.0
19/03:30pm 21.1 19.0 11.2 53 5.5 E 13 17 7 9 1028.3 1028.3 0.0
19/03:00pm 21.4 19.2 10.9 51 5.7 E 13 17 7 9 1028.2 1028.2 0.0
19/02:30pm 22.5 19.7 11.3 49 6.2 SE 17 24 9 13 1028.2 1028.2 0.0
19/02:00pm 22.4 21.6 11.8 51 5.9 ESE 7 11 4 6 1028.6 1028.6 0.0
19/01:30pm 22.6 21.0 11.7 50 6.1 ENE 11 17 6 9 1028.7 1028.7 0.0
19/01:00pm 22.4 21.6 11.8 51 5.9 NE 7 13 4 7 1029.1 1029.1 0.0
19/12:30pm 21.8 20.7 12.1 54 5.5 SSE 9 15 5 8 1029.4 1029.4 0.0
19/12:00pm 21.2 20.1 11.8 55 5.2 SE 9 13 5 7 1029.9 1029.9 0.0
19/11:30am 21.4 19.9 12.0 55 5.3 SSE 11 17 6 9 1030.4 1030.4 0.0
19/11:00am 21.9 22.3 13.8 60 4.7 E 4 13 2 7 1030.8 1030.8 0.0
19/10:30am 20.6 20.2 14.0 66 3.8 SSW 9 13 5 7 1031.2 1031.2 0.0
19/10:00am 19.2 19.5 13.4 69 3.3 NW 4 7 2 4 1031.6 1031.6 0.0
19/09:30am 18.4 18.2 13.1 71 3.0 NNW 6 9 3 5 1031.7 1031.7 0.0
19/09:00am 16.9 16.0 12.6 76 2.4 WNW 9 11 5 6 1031.7 1031.7 0.0
19/08:30am 15.4 14.9 12.5 83 1.6 W 7 11 4 6 1031.7 1031.7 0.0
19/08:00am 13.8 14.5 12.2 90 0.9 CALM 0 0 0 0 1031.3 1031.3 0.0
19/07:30am 12.9 13.6 12.1 95 0.4 CALM 0 0 0 0 1031.3 1031.3 0.0
19/07:22am 12.4 12.9 11.6 95 0.4 CALM 0 0 0 0 1031.3 1031.3 0.0
19/07:00am 11.3 11.5 10.4 94 0.5 CALM 0 0 0 0 1031.2 1031.2 0.0
19/06:30am 11.7 11.9 10.6 93 0.6 CALM 0 0 0 0 1030.6 1030.6 0.0
19/06:24am 11.6 11.7 10.3 92 0.7 CALM 0 0 0 0 1030.6 1030.6 0.0
19/06:00am 12.8 13.0 11.9 94 0.5 NNW 2 7 1 4 1030.4 1030.4 0.0
19/05:30am 13.0 12.3 11.9 93 0.6 NNW 7 9 4 5 1030.2 1030.2 0.0
19/05:00am 13.0 13.2 11.7 92 0.7 WNW 2 9 1 5 1029.7 1029.7 0.0
19/04:30am 13.1 13.5 11.3 89 1.0 CALM 0 0 0 0 1029.5 1029.5 0.0
19/04:00am 14.1 14.8 12.1 88 1.1 CALM 0 6 0 3 1029.6 1029.6 0.0
19/03:30am 14.9 15.9 13.3 90 0.9 CALM 0 0 0 0 1029.7 1029.7 0.0
19/03:00am 15.0 16.1 13.4 90 0.9 CALM 0 0 0 0 1029.8 1029.8 0.0
19/02:30am 14.8 15.8 13.2 90 0.9 CALM 0 0 0 0 1029.7 1029.7 0.0
19/02:00am 15.0 16.0 13.2 89 1.0 CALM 0 0 0 0 1029.7 1029.7 0.0
19/01:30am 15.1 15.0 13.3 89 1.0 SSW 6 7 3 4 1030.0 1030.0 0.0
19/01:00am 15.1 16.2 13.5 90 0.9 CALM 0 0 0 0 1030.2 1030.2 0.0
19/12:30am 15.1 16.2 13.6 91 0.8 CALM 0 0 0 0 1030.5 1030.5 0.0
19/12:00am 14.9 16.0 13.4 91 0.8 CALM 0 0 0 0 1030.8 1030.8 0.0
 
Date/Time
EST
Temp
°C
App
Temp
°C
Dew
Point
°C
Rel
Hum
%
Delta-T
°C
Wind Press
QNH
hPa
Press
MSL
hPa
Rain since
9am
mm
Dir  Spd
km/h
Gust
km/h
Spd
kts
Gust
kts
18/11:30pm 14.7 15.7 13.2 91 0.8 CALM 0 0 0 0 1030.9 1030.9 0.0
18/11:00pm 14.6 15.6 13.1 91 0.8 CALM 0 0 0 0 1031.0 1031.0 0.0
18/10:30pm 14.5 15.1 13.2 92 0.7 WSW 2 6 1 3 1031.1 1031.1 0.0
18/10:00pm 14.1 14.9 12.7 91 0.8 CALM 0 0 0 0 1031.2 1031.2 0.0
18/09:30pm 14.5 15.4 12.9 90 0.9 CALM 0 0 0 0 1030.8 1030.8 0.0
18/09:00pm 14.5 15.4 13.0 91 0.8 CALM 0 0 0 0 1030.8 1030.8 0.0
18/08:30pm 14.2 15.0 12.4 89 1.0 CALM 0 0 0 0 1030.4 1030.4 0.0
18/08:00pm 13.9 14.5 11.8 87 1.1 CALM 0 0 0 0 1030.1 1030.1 0.0
18/07:30pm 15.4 16.6 13.9 91 0.8 CALM 0 0 0 0 1029.8 1029.8 0.0
18/07:00pm 14.8 15.7 13.0 89 1.0 CALM 0 0 0 0 1029.7 1029.7 0.0
18/06:30pm 15.3 16.1 12.6 84 1.5 CALM 0 0 0 0 1029.2 1029.2 0.0
18/06:00pm 17.9 18.0 13.8 77 2.3 ESE 6 9 3 5 1029.1 1029.1 0.0
18/05:30pm 18.8 18.4 14.1 74 2.7 ESE 9 13 5 7 1028.9 1028.9 0.0
18/05:00pm 19.5 18.3 13.9 70 3.2 ESE 13 24 7 13 1028.7 1028.7 0.0
18/04:30pm 20.1 18.1 13.8 67 3.6 SE 17 20 9 11 1028.4 1028.4 0.0
18/04:00pm 20.8 18.8 14.0 65 3.9 ESE 17 20 9 11 1028.1 1028.1 0.0
18/03:30pm 21.1 18.8 14.0 64 4.1 ESE 19 22 10 12 1028.1 1028.1 0.0
18/03:00pm 21.8 19.9 14.2 62 4.4 ESE 17 22 9 12 1028.1 1028.1 0.0
18/02:30pm 22.0 19.8 13.4 58 5.0 ESE 17 22 9 12 1028.0 1028.0 0.0
18/02:00pm 22.9 22.3 12.2 51 6.0 E 7 13 4 7 1028.2 1028.2 0.0
18/01:30pm 22.5 22.1 13.0 55 5.4 SE 7 13 4 7 1028.4 1028.4 0.0
18/01:00pm 23.2 23.6 13.7 55 5.5 NW 4 7 2 4 1028.7 1028.7 0.0
18/12:30pm 21.8 21.7 13.4 59 4.8 ENE 6 11 3 6 1029.2 1029.2 0.0
18/12:00pm 21.1 20.7 13.0 60 4.6 SSE 7 13 4 7 1029.6 1029.6 0.0
18/11:30am 21.1 21.2 12.8 59 4.7 ENE 4 9 2 5 1030.1 1030.1 0.0
18/11:00am 20.0 19.6 12.3 61 4.3 WNW 6 9 3 5 1030.6 1030.6 0.0
18/10:30am 19.0 18.2 11.6 62 4.1 WNW 7 11 4 6 1030.9 1030.9 0.0
18/10:00am 18.1 17.3 11.2 64 3.7 W 6 9 3 5 1030.9 1030.9 0.0
18/09:30am 16.8 15.4 10.9 68 3.2 W 9 13 5 7 1030.8 1030.8 0.0
18/09:00am 15.3 13.7 10.1 71 2.7 WNW 9 11 5 6 1031.0 1031.0 0.0

Other formats

Comma delimited format used in spreadsheet applications
http://www.bom.gov.au/fwo/IDN60801/IDN60801.94765.axf

JavaScript Object Notation format (JSON) in row-major order
http://www.bom.gov.au/fwo/IDN60801/IDN60801.94765.json

Data quality

Most of these data are generated automatically and are frequently updated. Quality checks on data are not normally performed. It is possible for incorrect values to appear. Refer to information at About Latest Weather Observations and please check the disclaimer before using these data.